Terminal Aerodrome Forecast
Issued by NWS Cleveland, OH

Home | Current Version | Previous Version | Graphics & Text | Print | Product List | Glossary On
Versions: 1 2 3 4 5 6 7 8 9 10 11 12 13 14 15 16 17 18 19 20
000
FTUS41 KCLE 021728
TAFMFD
TAF
KMFD 021728Z 0218/0318 24010G20KT P6SM OVC025
     FM021900 26010G20KT P6SM OVC035
     FM030100 27007KT P6SM OVC035
     FM031100 27005KT 6SM BR OVC025
     FM031600 27006KT P6SM OVC025=

USA.gov is the U.S. government's official web portal to all federal, state and local government web resources and services.